Time;durP1;ratioP1;P1;durP2;ratioP2;P2;SDS_P1;SDS_P2;PMS_P1;PMS_P2;Temp;Humidity;BMP_temperature;BMP_pressure;BME280_temperature;BME280_humidity;BME280_pressure;Samples;Min_cycle;Max_cycle;Signal;HPM_P1;HPM_P2
2023/03/29 00:01:29;;;;;;;9.40;4.78;;;;;;;;;;5049770;28;20075;-68
2023/03/29 00:03:56;;;;;;;9.82;5.25;;;;;;;;;;5053186;28;20064;-68
2023/03/29 00:06:22;;;;;;;10.85;5.53;;;;;;;;;;5030747;28;20123;-67
2023/03/29 00:08:52;;;;;;;10.20;4.63;;;;;;;;;;5049714;28;20454;-68
2023/03/29 00:11:19;;;;;;;9.05;4.80;;;;;;;;;;5051980;28;20550;-68
2023/03/29 00:13:45;;;;;;;11.90;5.10;;;;;;;;;;5055648;28;20044;-68
2023/03/29 00:16:12;;;;;;;9.43;4.80;;;;;;;;;;5053941;28;20037;-68
2023/03/29 00:18:39;;;;;;;9.25;4.68;;;;;;;;;;5050931;28;20048;-68
2023/03/29 00:21:05;;;;;;;8.93;4.97;;;;;;;;;;5053174;28;20044;-68
2023/03/29 00:23:31;;;;;;;9.95;4.90;;;;;;;;;;5055819;28;20298;-68
2023/03/29 00:25:57;;;;;;;11.07;5.15;;;;;;;;;;5052078;28;20400;-68
2023/03/29 00:28:25;;;;;;;8.98;4.63;;;;;;;;;;5053404;28;20052;-68
2023/03/29 00:30:51;;;;;;;6.38;4.03;;;;;;;;;;5055511;28;20534;-68
2023/03/29 00:33:19;;;;;;;9.93;5.15;;;;;;;;;;5053893;28;20353;-68
2023/03/29 00:35:47;;;;;;;9.35;4.53;;;;;;;;;;5035236;28;20043;-67
2023/03/29 00:38:14;;;;;;;9.85;4.78;;;;;;;;;;5051419;28;20048;-68
2023/03/29 00:40:46;;;;;;;10.52;4.75;;;;;;;;;;5033395;28;20159;-68
2023/03/29 00:43:13;;;;;;;11.23;4.63;;;;;;;;;;5052835;28;20184;-68
2023/03/29 00:45:39;;;;;;;9.18;4.72;;;;;;;;;;5053666;28;20115;-67
2023/03/29 00:48:10;;;;;;;9.52;4.72;;;;;;;;;;5050493;28;20119;-68
2023/03/29 00:50:40;;;;;;;9.23;4.78;;;;;;;;;;5053370;28;20040;-68
2023/03/29 00:53:07;;;;;;;8.60;4.35;;;;;;;;;;5032955;28;20402;-68
2023/03/29 00:55:42;;;;;;;9.73;4.65;;;;;;;;;;5052684;28;21208;-68
2023/03/29 00:58:11;;;;;;;7.85;4.47;;;;;;;;;;5049777;28;20044;-67
2023/03/29 01:00:41;;;;;;;8.60;4.60;;;;;;;;;;5033917;28;20056;-68
2023/03/29 01:03:12;;;;;;;8.80;4.38;;;;;;;;;;5031466;28;20045;-68
2023/03/29 01:05:40;;;;;;;11.07;4.80;;;;;;;;;;5031883;28;20056;-69
2023/03/29 01:08:10;;;;;;;9.63;4.55;;;;;;;;;;5050605;28;20087;-68
2023/03/29 01:10:39;;;;;;;9.30;4.43;;;;;;;;;;5036057;28;20063;-68
2023/03/29 01:13:08;;;;;;;9.13;4.97;;;;;;;;;;5034799;28;20052;-68
2023/03/29 01:15:34;;;;;;;12.73;4.63;;;;;;;;;;5051892;28;20071;-68
2023/03/29 01:18:00;;;;;;;7.70;4.47;;;;;;;;;;5049296;28;20147;-68
2023/03/29 01:20:30;;;;;;;11.20;5.13;;;;;;;;;;5051721;28;20353;-69
2023/03/29 01:23:03;;;;;;;8.85;4.68;;;;;;;;;;5032369;28;20107;-69
2023/03/29 01:25:44;;;;;;;7.80;4.03;;;;;;;;;;5050396;28;20070;-68
2023/03/29 01:28:13;;;;;;;9.60;4.20;;;;;;;;;;5050762;28;20048;-68
2023/03/29 01:30:44;;;;;;;8.88;4.20;;;;;;;;;;5049558;28;20143;-68
2023/03/29 01:33:19;;;;;;;7.82;3.65;;;;;;;;;;5052955;28;20055;-68
2023/03/29 01:36:04;;;;;;;8.73;3.65;;;;;;;;;;5051680;28;20369;-69
2023/03/29 01:38:37;;;;;;;9.23;4.18;;;;;;;;;;5053772;28;20139;-69
2023/03/29 01:41:03;;;;;;;7.53;3.65;;;;;;;;;;5034920;28;20064;-67
2023/03/29 01:43:36;;;;;;;10.48;3.90;;;;;;;;;;5053531;28;20438;-67
2023/03/29 01:46:03;;;;;;;9.48;3.60;;;;;;;;;;5034478;28;20122;-68
2023/03/29 01:48:32;;;;;;;6.30;3.42;;;;;;;;;;5052328;28;20044;-68
2023/03/29 01:51:04;;;;;;;9.13;3.65;;;;;;;;;;5058354;28;20040;-68
2023/03/29 01:53:39;;;;;;;7.88;3.47;;;;;;;;;;5057325;28;20557;-68
2023/03/29 01:56:10;;;;;;;7.78;3.63;;;;;;;;;;5053899;28;20072;-69
2023/03/29 01:58:39;;;;;;;5.72;3.47;;;;;;;;;;5053955;28;20049;-69
2023/03/29 02:01:09;;;;;;;7.32;3.75;;;;;;;;;;5035606;28;20062;-69
2023/03/29 02:03:41;;;;;;;8.18;3.15;;;;;;;;;;5053931;28;20080;-68
2023/03/29 02:06:09;;;;;;;9.88;3.30;;;;;;;;;;5040093;28;20056;-68
2023/03/29 02:08:37;;;;;;;8.32;3.42;;;;;;;;;;5053074;28;20040;-69
2023/03/29 02:11:03;;;;;;;20.77;4.10;;;;;;;;;;5036372;28;20045;-68
2023/03/29 02:13:30;;;;;;;10.77;3.40;;;;;;;;;;5037619;28;20651;-69
2023/03/29 02:15:58;;;;;;;7.15;3.30;;;;;;;;;;5055898;28;20064;-68
2023/03/29 02:18:25;;;;;;;6.15;3.40;;;;;;;;;;5034646;28;20103;-68
2023/03/29 02:20:52;;;;;;;9.80;3.67;;;;;;;;;;5034217;28;20904;-68
2023/03/29 02:23:21;;;;;;;8.20;3.70;;;;;;;;;;5036955;28;20101;-68
2023/03/29 02:25:49;;;;;;;12.00;3.88;;;;;;;;;;5030555;28;20061;-69
2023/03/29 02:28:16;;;;;;;10.57;3.58;;;;;;;;;;5035468;28;20053;-68
2023/03/29 02:30:53;;;;;;;7.35;3.47;;;;;;;;;;5036735;28;20092;-69
2023/03/29 02:33:24;;;;;;;9.23;4.03;;;;;;;;;;5030348;28;20101;-68
2023/03/29 02:35:55;;;;;;;10.93;3.95;;;;;;;;;;5038205;28;20045;-68
2023/03/29 02:38:24;;;;;;;6.00;3.47;;;;;;;;;;5034577;28;20044;-69
2023/03/29 02:40:51;;;;;;;9.13;4.15;;;;;;;;;;5033852;28;20095;-69
2023/03/29 02:43:19;;;;;;;6.25;3.47;;;;;;;;;;5036286;28;20507;-69
2023/03/29 02:45:46;;;;;;;8.90;3.72;;;;;;;;;;5034642;28;20041;-69
2023/03/29 02:48:15;;;;;;;10.68;4.13;;;;;;;;;;5034235;28;20051;-69
2023/03/29 02:50:42;;;;;;;11.60;4.13;;;;;;;;;;5033807;28;20148;-68
2023/03/29 02:53:13;;;;;;;11.88;4.10;;;;;;;;;;5037111;28;20087;-68
2023/03/29 02:55:39;;;;;;;6.80;4.55;;;;;;;;;;5035801;28;20047;-68
2023/03/29 02:58:07;;;;;;;7.10;3.80;;;;;;;;;;5036422;28;20629;-69
2023/03/29 03:00:37;;;;;;;10.55;4.57;;;;;;;;;;5037023;28;20144;-69
2023/03/29 03:03:04;;;;;;;11.18;4.40;;;;;;;;;;5036033;28;20543;-69
2023/03/29 03:05:31;;;;;;;8.45;4.55;;;;;;;;;;5034964;28;20045;-69
2023/03/29 03:07:57;;;;;;;8.93;4.38;;;;;;;;;;5033301;28;20472;-69
2023/03/29 03:10:23;;;;;;;11.07;4.40;;;;;;;;;;5036542;28;20064;-69
2023/03/29 03:12:49;;;;;;;8.63;4.03;;;;;;;;;;5036143;28;20963;-69
2023/03/29 03:15:15;;;;;;;7.88;4.50;;;;;;;;;;5033962;28;20045;-68
2023/03/29 03:17:41;;;;;;;8.45;4.85;;;;;;;;;;5032144;28;20088;-69
2023/03/29 03:20:15;;;;;;;8.95;4.65;;;;;;;;;;5037126;28;20054;-69
2023/03/29 03:22:42;;;;;;;8.18;4.32;;;;;;;;;;5033439;28;20106;-68
2023/03/29 03:25:10;;;;;;;8.50;3.88;;;;;;;;;;5034858;28;20056;-69
2023/03/29 03:27:36;;;;;;;6.50;4.22;;;;;;;;;;5037294;28;20120;-69
2023/03/29 03:30:05;;;;;;;7.93;4.20;;;;;;;;;;5019959;28;20476;-68
2023/03/29 03:32:32;;;;;;;8.15;4.25;;;;;;;;;;5033426;28;20087;-68
2023/03/29 03:34:59;;;;;;;9.43;4.40;;;;;;;;;;5032917;28;20044;-69
2023/03/29 03:37:26;;;;;;;9.38;4.38;;;;;;;;;;5034285;28;20037;-68
2023/03/29 03:39:52;;;;;;;13.68;4.43;;;;;;;;;;5034448;28;20185;-68
2023/03/29 03:42:19;;;;;;;8.98;4.80;;;;;;;;;;5034967;28;20123;-69
2023/03/29 03:44:45;;;;;;;9.07;4.47;;;;;;;;;;5032676;28;20510;-68
2023/03/29 03:47:13;;;;;;;12.48;5.13;;;;;;;;;;5033818;28;20531;-68
2023/03/29 03:49:40;;;;;;;8.60;4.68;;;;;;;;;;5030816;28;20122;-68
2023/03/29 03:52:06;;;;;;;9.70;5.15;;;;;;;;;;5037440;28;20781;-69
2023/03/29 03:54:33;;;;;;;10.75;4.93;;;;;;;;;;5034472;28;20067;-68
2023/03/29 03:56:59;;;;;;;10.68;4.85;;;;;;;;;;5034511;28;20045;-69
2023/03/29 03:59:25;;;;;;;8.35;5.22;;;;;;;;;;5032815;28;20461;-69
2023/03/29 04:01:51;;;;;;;13.20;5.35;;;;;;;;;;5032198;28;20037;-69
2023/03/29 04:04:18;;;;;;;9.93;5.20;;;;;;;;;;5033801;28;20124;-69
2023/03/29 04:06:44;;;;;;;8.93;5.15;;;;;;;;;;5031874;28;20058;-68
2023/03/29 04:09:11;;;;;;;10.65;5.43;;;;;;;;;;5031699;28;20089;-69
2023/03/29 04:11:38;;;;;;;10.05;4.93;;;;;;;;;;5032418;28;20064;-69
2023/03/29 04:14:04;;;;;;;12.30;5.85;;;;;;;;;;5032205;28;20183;-68
2023/03/29 04:16:30;;;;;;;11.05;6.45;;;;;;;;;;5016307;28;20064;-69
2023/03/29 04:18:56;;;;;;;8.75;5.32;;;;;;;;;;5056538;28;20427;-69
2023/03/29 04:21:22;;;;;;;10.20;5.40;;;;;;;;;;5055584;28;20556;-69
2023/03/29 04:23:49;;;;;;;10.52;6.10;;;;;;;;;;5054469;28;20112;-68
2023/03/29 04:26:16;;;;;;;12.05;5.70;;;;;;;;;;5034072;28;20056;-68
2023/03/29 04:28:42;;;;;;;10.27;6.32;;;;;;;;;;5033267;28;20053;-68
2023/03/29 04:31:11;;;;;;;11.27;5.78;;;;;;;;;;5036095;28;20704;-68
2023/03/29 04:33:37;;;;;;;10.82;5.95;;;;;;;;;;5053317;28;20475;-69
2023/03/29 04:36:04;;;;;;;12.88;6.47;;;;;;;;;;5033187;28;20147;-68
2023/03/29 04:38:30;;;;;;;16.30;6.88;;;;;;;;;;5037702;28;20095;-69
2023/03/29 04:40:57;;;;;;;11.70;6.18;;;;;;;;;;5054145;28;20041;-69
2023/03/29 04:43:23;;;;;;;9.40;5.82;;;;;;;;;;5053025;28;20484;-68
2023/03/29 04:45:49;;;;;;;10.10;6.18;;;;;;;;;;5053962;28;20649;-68
2023/03/29 04:48:16;;;;;;;9.85;6.00;;;;;;;;;;5051294;28;20940;-68
2023/03/29 04:50:45;;;;;;;14.05;6.07;;;;;;;;;;5052501;28;20711;-68
2023/03/29 04:53:11;;;;;;;10.82;6.05;;;;;;;;;;5055977;28;20450;-68
2023/03/29 04:55:37;;;;;;;11.43;6.50;;;;;;;;;;5052595;28;21929;-68
2023/03/29 04:58:04;;;;;;;12.63;6.05;;;;;;;;;;5054852;28;20108;-70
2023/03/29 05:00:30;;;;;;;12.45;7.00;;;;;;;;;;5036734;28;20055;-68
2023/03/29 05:02:56;;;;;;;9.70;6.22;;;;;;;;;;5049681;28;20044;-68
2023/03/29 05:05:23;;;;;;;11.65;6.25;;;;;;;;;;5037227;28;20052;-68
2023/03/29 05:07:50;;;;;;;12.57;6.88;;;;;;;;;;5055948;28;20039;-68
2023/03/29 05:10:16;;;;;;;10.65;6.57;;;;;;;;;;5059784;28;20076;-68
2023/03/29 05:12:42;;;;;;;13.00;7.28;;;;;;;;;;5060804;28;20044;-68
2023/03/29 05:15:08;;;;;;;12.95;7.45;;;;;;;;;;5062807;28;20040;-69
2023/03/29 05:17:35;;;;;;;14.23;7.03;;;;;;;;;;5038697;28;20439;-65
2023/03/29 05:20:07;;;;;;;11.90;6.68;;;;;;;;;;5061975;28;20048;-68
2023/03/29 05:22:35;;;;;;;16.58;7.55;;;;;;;;;;5059060;28;20053;-69
2023/03/29 05:25:01;;;;;;;13.65;6.68;;;;;;;;;;5057088;28;20045;-69
2023/03/29 05:27:28;;;;;;;16.67;8.32;;;;;;;;;;5060170;28;20074;-68
2023/03/29 05:29:54;;;;;;;12.18;7.82;;;;;;;;;;5060235;28;20492;-68
2023/03/29 05:32:21;;;;;;;13.75;8.43;;;;;;;;;;5055522;28;20068;-68
2023/03/29 05:34:47;;;;;;;14.75;8.45;;;;;;;;;;5058706;28;20052;-69
2023/03/29 05:37:13;;;;;;;16.75;8.63;;;;;;;;;;5055342;28;20033;-69
2023/03/29 05:39:39;;;;;;;15.38;9.30;;;;;;;;;;5058278;28;20041;-69
2023/03/29 05:42:05;;;;;;;18.67;9.80;;;;;;;;;;5045575;28;20052;-69
2023/03/29 05:44:32;;;;;;;19.98;10.23;;;;;;;;;;5061665;28;20051;-68
2023/03/29 05:46:58;;;;;;;17.40;11.10;;;;;;;;;;5044695;28;20040;-69
2023/03/29 05:49:24;;;;;;;16.45;10.27;;;;;;;;;;5049171;28;20053;-69
2023/03/29 05:51:51;;;;;;;19.15;12.65;;;;;;;;;;5063430;28;20441;-68
2023/03/29 05:54:17;;;;;;;27.13;12.68;;;;;;;;;;5064638;28;20407;-69
2023/03/29 05:56:43;;;;;;;22.80;12.38;;;;;;;;;;5062642;28;20369;-69
2023/03/29 05:59:09;;;;;;;29.48;14.25;;;;;;;;;;5039710;28;20068;-69
2023/03/29 06:01:35;;;;;;;23.08;14.48;;;;;;;;;;5061006;28;20041;-69
2023/03/29 06:04:02;;;;;;;25.60;15.48;;;;;;;;;;5047001;28;20044;-69
2023/03/29 06:06:28;;;;;;;29.48;15.18;;;;;;;;;;5063284;28;20048;-69
2023/03/29 06:08:54;;;;;;;26.65;14.75;;;;;;;;;;5059152;28;20053;-68
2023/03/29 06:11:23;;;;;;;32.28;15.68;;;;;;;;;;5062694;28;20132;-68
2023/03/29 06:13:49;;;;;;;30.92;16.45;;;;;;;;;;5062532;28;20056;-67
2023/03/29 06:16:15;;;;;;;28.35;16.38;;;;;;;;;;5064149;28;20053;-67
2023/03/29 06:18:42;;;;;;;28.80;16.52;;;;;;;;;;5062117;28;20064;-67
2023/03/29 06:21:08;;;;;;;31.88;17.38;;;;;;;;;;5061344;28;20048;-67
2023/03/29 06:23:35;;;;;;;28.40;15.90;;;;;;;;;;5060276;28;20037;-67
2023/03/29 06:26:01;;;;;;;28.33;16.98;;;;;;;;;;5061716;28;20057;-67
2023/03/29 06:28:27;;;;;;;28.20;16.52;;;;;;;;;;5043260;28;20131;-67
2023/03/29 06:30:55;;;;;;;27.10;16.67;;;;;;;;;;5061961;28;20063;-67
2023/03/29 06:33:21;;;;;;;30.02;15.98;;;;;;;;;;5062409;28;20041;-67
2023/03/29 06:35:48;;;;;;;33.65;16.45;;;;;;;;;;5060882;28;20037;-67
2023/03/29 06:38:15;;;;;;;27.48;16.17;;;;;;;;;;5060134;28;20041;-67
2023/03/29 06:40:43;;;;;;;29.15;16.05;;;;;;;;;;5038578;28;20444;-67
2023/03/29 06:43:09;;;;;;;24.15;14.52;;;;;;;;;;5053594;28;20437;-67
2023/03/29 06:45:36;;;;;;;26.67;15.43;;;;;;;;;;5041813;28;20491;-67
2023/03/29 06:48:04;;;;;;;22.80;14.05;;;;;;;;;;5060102;28;20511;-67
2023/03/29 06:50:31;;;;;;;21.83;14.88;;;;;;;;;;5062153;28;20041;-67
2023/03/29 06:52:57;;;;;;;25.73;14.30;;;;;;;;;;5065106;28;20159;-66
2023/03/29 06:55:24;;;;;;;27.05;15.68;;;;;;;;;;5061923;28;20036;-67
2023/03/29 06:57:51;;;;;;;24.83;14.70;;;;;;;;;;5068585;28;20043;-67
2023/03/29 07:00:18;;;;;;;22.45;13.15;;;;;;;;;;5060637;28;20040;-67
2023/03/29 07:02:45;;;;;;;24.65;13.65;;;;;;;;;;5064810;28;20505;-67
2023/03/29 07:05:12;;;;;;;21.35;12.68;;;;;;;;;;5061412;28;20101;-68
2023/03/29 07:07:54;;;;;;;21.10;13.05;;;;;;;;;;5067502;28;20136;-67
2023/03/29 07:10:21;;;;;;;20.73;12.45;;;;;;;;;;5064166;28;20346;-68
2023/03/29 07:12:48;;;;;;;20.70;12.13;;;;;;;;;;5063491;28;20044;-66
2023/03/29 07:15:14;;;;;;;24.50;12.57;;;;;;;;;;5043910;28;20049;-65
2023/03/29 07:17:40;;;;;;;20.38;12.25;;;;;;;;;;5062767;28;20109;-65
2023/03/29 07:20:12;;;;;;;21.35;12.52;;;;;;;;;;5042295;28;20052;-66
2023/03/29 07:22:38;;;;;;;16.42;10.77;;;;;;;;;;5061645;28;20087;-65
2023/03/29 07:25:07;;;;;;;21.38;11.90;;;;;;;;;;5047747;28;20060;-65
2023/03/29 07:27:33;;;;;;;19.00;11.40;;;;;;;;;;5060798;28;20040;-66
2023/03/29 07:30:00;;;;;;;15.60;10.73;;;;;;;;;;5062113;28;20215;-66
2023/03/29 07:32:26;;;;;;;18.27;10.75;;;;;;;;;;5062227;28;20044;-66
2023/03/29 07:34:53;;;;;;;16.35;10.75;;;;;;;;;;5060505;28;20055;-66
2023/03/29 07:37:19;;;;;;;16.85;10.95;;;;;;;;;;5064237;28;20087;-66
2023/03/29 07:39:46;;;;;;;22.95;11.38;;;;;;;;;;5047915;28;20169;-66
2023/03/29 07:42:12;;;;;;;19.52;9.48;;;;;;;;;;5065953;28;20366;-66
2023/03/29 07:44:40;;;;;;;15.93;9.82;;;;;;;;;;5065587;28;20036;-66
2023/03/29 07:47:06;;;;;;;18.63;11.65;;;;;;;;;;5032475;28;20044;-67
2023/03/29 07:49:32;;;;;;;18.50;10.85;;;;;;;;;;5062511;28;20081;-66
2023/03/29 07:51:59;;;;;;;19.13;10.65;;;;;;;;;;5061591;28;20068;-66
2023/03/29 07:54:25;;;;;;;15.85;9.77;;;;;;;;;;5056719;28;20036;-66
2023/03/29 07:56:51;;;;;;;14.88;9.57;;;;;;;;;;5062247;28;20097;-66
2023/03/29 07:59:18;;;;;;;18.20;10.45;;;;;;;;;;5059580;28;20078;-66
2023/03/29 08:01:44;;;;;;;17.83;10.13;;;;;;;;;;5042440;28;20078;-66
2023/03/29 08:04:10;;;;;;;20.52;11.32;;;;;;;;;;5058791;28;20052;-66
2023/03/29 08:06:37;;;;;;;15.55;9.75;;;;;;;;;;5058805;28;20412;-66
2023/03/29 08:09:03;;;;;;;15.50;9.55;;;;;;;;;;5057699;28;20056;-67
2023/03/29 08:11:29;;;;;;;19.10;9.57;;;;;;;;;;5060060;28;20287;-66
2023/03/29 08:13:57;;;;;;;13.00;8.07;;;;;;;;;;5056497;28;20033;-66
2023/03/29 08:16:24;;;;;;;15.63;10.40;;;;;;;;;;5058688;28;20044;-66
2023/03/29 08:18:50;;;;;;;15.20;9.27;;;;;;;;;;5056021;28;20045;-66
2023/03/29 08:21:16;;;;;;;19.80;9.60;;;;;;;;;;5044367;28;20580;-67
2023/03/29 08:23:42;;;;;;;20.67;10.18;;;;;;;;;;5060217;28;20469;-66
2023/03/29 08:26:09;;;;;;;15.52;9.90;;;;;;;;;;5061100;28;20044;-66
2023/03/29 08:28:35;;;;;;;17.10;9.95;;;;;;;;;;5062770;28;20086;-66
2023/03/29 08:31:01;;;;;;;17.52;9.50;;;;;;;;;;5065295;28;20048;-67
2023/03/29 08:33:27;;;;;;;19.60;10.43;;;;;;;;;;5066066;28;20118;-66
2023/03/29 08:35:53;;;;;;;17.55;9.30;;;;;;;;;;5065455;28;20122;-67
2023/03/29 08:38:20;;;;;;;20.25;10.40;;;;;;;;;;5047179;28;20476;-66
2023/03/29 08:40:47;;;;;;;17.10;9.80;;;;;;;;;;5065659;28;20047;-66
2023/03/29 08:43:13;;;;;;;13.07;10.05;;;;;;;;;;5065764;28;20036;-66
2023/03/29 08:45:46;;;;;;;16.80;8.68;;;;;;;;;;5066586;28;20068;-66
2023/03/29 08:48:17;;;;;;;15.90;10.00;;;;;;;;;;5063167;28;20179;-66
2023/03/29 08:50:46;;;;;;;15.75;9.55;;;;;;;;;;5063902;28;20033;-66
2023/03/29 08:53:22;;;;;;;16.42;9.32;;;;;;;;;;5067013;28;20049;-66
2023/03/29 08:55:48;;;;;;;20.10;9.82;;;;;;;;;;5063425;28;20412;-67
2023/03/29 08:58:18;;;;;;;17.45;9.35;;;;;;;;;;5048642;28;20127;-66
2023/03/29 09:00:50;;;;;;;19.27;10.32;;;;;;;;;;5061021;28;20072;-66
2023/03/29 09:03:21;;;;;;;17.55;8.98;;;;;;;;;;5059977;28;20607;-66
2023/03/29 09:05:48;;;;;;;15.38;9.65;;;;;;;;;;5063140;28;20102;-66
2023/03/29 09:08:16;;;;;;;17.98;9.75;;;;;;;;;;5058921;28;20121;-67
2023/03/29 09:10:45;;;;;;;14.10;8.80;;;;;;;;;;5058923;28;20115;-66
2023/03/29 09:13:18;;;;;;;15.32;9.27;;;;;;;;;;5059002;28;20068;-67
2023/03/29 09:15:51;;;;;;;13.40;9.10;;;;;;;;;;5059758;28;20545;-67
2023/03/29 09:18:26;;;;;;;15.93;8.73;;;;;;;;;;5063352;28;20052;-66
2023/03/29 09:20:55;;;;;;;14.88;8.85;;;;;;;;;;5043531;28;20061;-66
2023/03/29 09:23:29;;;;;;;12.90;9.07;;;;;;;;;;5054336;28;20163;-66
2023/03/29 09:25:58;;;;;;;17.98;10.40;;;;;;;;;;5055815;28;20064;-66
2023/03/29 09:28:36;;;;;;;17.33;9.25;;;;;;;;;;5060367;28;20085;-67
2023/03/29 09:31:11;;;;;;;14.45;9.25;;;;;;;;;;5040114;28;20079;-66
2023/03/29 09:33:42;;;;;;;20.77;10.82;;;;;;;;;;5059125;28;20056;-67
2023/03/29 09:36:23;;;;;;;16.00;10.20;;;;;;;;;;5061394;28;20085;-67
2023/03/29 09:38:53;;;;;;;19.55;10.68;;;;;;;;;;5059702;28;20048;-67
2023/03/29 09:41:22;;;;;;;17.48;10.88;;;;;;;;;;5042606;28;20052;-67
2023/03/29 09:43:50;;;;;;;18.63;10.38;;;;;;;;;;5059033;28;20055;-67
2023/03/29 09:46:22;;;;;;;17.33;10.80;;;;;;;;;;5038282;28;20141;-67
2023/03/29 09:48:50;;;;;;;20.42;11.70;;;;;;;;;;5060069;28;20139;-67
2023/03/29 09:51:19;;;;;;;24.48;11.88;;;;;;;;;;5058088;28;20441;-65
2023/03/29 09:53:46;;;;;;;17.92;11.13;;;;;;;;;;5060961;28;20060;-67
2023/03/29 09:56:14;;;;;;;17.75;12.02;;;;;;;;;;5064240;28;20041;-67
2023/03/29 09:58:42;;;;;;;19.30;11.95;;;;;;;;;;5063600;28;20090;-67
2023/03/29 10:01:09;;;;;;;22.40;11.75;;;;;;;;;;5065659;28;20526;-66
2023/03/29 10:03:40;;;;;;;26.77;12.98;;;;;;;;;;5047812;28;20052;-67
2023/03/29 10:06:07;;;;;;;20.98;12.75;;;;;;;;;;5060826;28;20071;-67
2023/03/29 10:08:34;;;;;;;25.13;12.82;;;;;;;;;;5045933;28;20052;-67
2023/03/29 10:11:03;;;;;;;18.85;11.15;;;;;;;;;;5057371;28;20443;-67
2023/03/29 10:13:42;;;;;;;25.60;13.25;;;;;;;;;;5060402;28;20437;-66
2023/03/29 10:16:17;;;;;;;25.35;14.57;;;;;;;;;;5045557;28;20088;-67
2023/03/29 10:18:43;;;;;;;28.45;13.93;;;;;;;;;;5063734;28;20044;-67
2023/03/29 10:21:14;;;;;;;26.00;14.30;;;;;;;;;;5049565;28;20127;-67
2023/03/29 10:23:41;;;;;;;22.73;12.90;;;;;;;;;;5068860;28;20415;-67
2023/03/29 10:26:10;;;;;;;24.90;14.27;;;;;;;;;;5067322;28;20545;-67
2023/03/29 10:28:37;;;;;;;27.20;12.95;;;;;;;;;;5068887;28;20480;-67
2023/03/29 10:31:06;;;;;;;28.58;13.27;;;;;;;;;;5068364;28;20041;-66
2023/03/29 10:33:34;;;;;;;21.52;13.07;;;;;;;;;;5067927;28;20479;-70
2023/03/29 10:36:01;;;;;;;27.20;15.40;;;;;;;;;;5068528;28;20357;-67
2023/03/29 10:38:28;;;;;;;24.17;13.00;;;;;;;;;;5069404;28;20504;-66
2023/03/29 10:40:55;;;;;;;21.75;13.52;;;;;;;;;;5068079;28;20487;-67
2023/03/29 10:43:25;;;;;;;24.25;13.55;;;;;;;;;;5068414;28;20056;-66
2023/03/29 10:45:54;;;;;;;22.92;12.93;;;;;;;;;;5050872;28;20099;-67
2023/03/29 10:48:23;;;;;;;23.42;15.00;;;;;;;;;;5067468;28;20033;-66
2023/03/29 10:50:52;;;;;;;27.70;14.45;;;;;;;;;;5068310;28;20455;-66
2023/03/29 10:53:28;;;;;;;23.90;15.70;;;;;;;;;;5066490;28;20044;-66
2023/03/29 10:56:06;;;;;;;26.15;16.35;;;;;;;;;;5040365;28;20080;-66
2023/03/29 10:58:38;;;;;;;30.23;16.02;;;;;;;;;;5054872;28;20138;-66
2023/03/29 11:01:05;;;;;;;30.20;16.10;;;;;;;;;;5061788;28;20088;-66
2023/03/29 11:03:43;;;;;;;28.77;17.95;;;;;;;;;;5062717;28;20048;-66
2023/03/29 11:06:15;;;;;;;30.83;18.67;;;;;;;;;;5056997;28;20400;-67
2023/03/29 11:08:41;;;;;;;31.08;17.40;;;;;;;;;;5062778;28;20056;-67
2023/03/29 11:11:28;;;;;;;28.15;18.13;;;;;;;;;;5041749;28;20074;-67
2023/03/29 11:14:02;;;;;;;30.67;18.70;;;;;;;;;;5058473;28;20193;-67
2023/03/29 11:16:33;;;;;;;39.30;19.30;;;;;;;;;;5057390;28;20056;-67
2023/03/29 11:19:20;;;;;;;31.20;18.90;;;;;;;;;;5058636;28;20072;-66
2023/03/29 11:22:02;;;;;;;34.72;19.05;;;;;;;;;;5062521;28;20044;-67
2023/03/29 11:24:28;;;;;;;33.92;17.95;;;;;;;;;;5040751;28;20044;-67
2023/03/29 11:27:04;;;;;;;30.77;18.08;;;;;;;;;;5062408;28;20121;-67
2023/03/29 11:29:51;;;;;;;35.97;19.90;;;;;;;;;;5059422;28;20033;-66
2023/03/29 11:32:18;;;;;;;31.92;19.55;;;;;;;;;;5058067;28;20336;-67
2023/03/29 11:34:59;;;;;;;34.63;20.40;;;;;;;;;;5062226;28;20138;-67
2023/03/29 11:37:32;;;;;;;36.05;19.23;;;;;;;;;;5060786;28;20043;-67
2023/03/29 11:39:59;;;;;;;33.22;20.08;;;;;;;;;;5062051;28;20044;-67
2023/03/29 11:42:28;;;;;;;37.78;20.95;;;;;;;;;;5060493;28;20128;-66
2023/03/29 11:44:56;;;;;;;39.50;21.33;;;;;;;;;;5038780;28;20048;-67
2023/03/29 11:47:26;;;;;;;33.28;20.45;;;;;;;;;;5062989;28;20486;-66
2023/03/29 11:50:02;;;;;;;29.95;18.35;;;;;;;;;;5063710;28;20036;-66
2023/03/29 11:52:29;;;;;;;31.52;18.45;;;;;;;;;;5060583;28;20052;-67
2023/03/29 11:55:02;;;;;;;29.98;19.02;;;;;;;;;;5059290;28;20862;-67
2023/03/29 11:57:31;;;;;;;30.40;18.83;;;;;;;;;;5054125;28;20067;-67
2023/03/29 12:00:01;;;;;;;38.47;18.40;;;;;;;;;;5057897;28;20115;-67
2023/03/29 12:02:33;;;;;;;36.72;21.63;;;;;;;;;;5060353;28;20125;-66
2023/03/29 12:05:01;;;;;;;33.33;19.67;;;;;;;;;;5055516;28;20076;-66
2023/03/29 12:07:31;;;;;;;30.15;18.95;;;;;;;;;;5060508;28;20037;-66
2023/03/29 12:10:02;;;;;;;30.05;18.50;;;;;;;;;;5061890;28;20436;-67
2023/03/29 12:12:36;;;;;;;29.83;18.08;;;;;;;;;;5058947;28;20090;-67
2023/03/29 12:15:02;;;;;;;;;;;;;;;;;;5055037;28;20488;-66
2023/03/29 12:17:41;;;;;;;32.67;19.67;;;;;;;;;;5057797;28;19928;-67
2023/03/29 12:20:08;;;;;;;29.73;18.27;;;;;;;;;;5058968;28;20501;-66
2023/03/29 12:22:34;;;;;;;30.23;18.95;;;;;;;;;;5058269;28;20047;-66
2023/03/29 12:25:02;;;;;;;34.78;18.90;;;;;;;;;;5057246;28;20065;-67
2023/03/29 12:27:31;;;;;;;31.90;19.45;;;;;;;;;;5054238;28;20076;-66
2023/03/29 12:29:57;;;;;;;28.50;17.90;;;;;;;;;;5055290;28;20103;-66
2023/03/29 12:32:32;;;;;;;33.25;20.65;;;;;;;;;;5054614;28;20029;-66
2023/03/29 12:35:08;;;;;;;32.03;18.88;;;;;;;;;;5036712;28;20047;-66
2023/03/29 12:37:42;;;;;;;30.58;19.95;;;;;;;;;;5061434;28;20055;-66
2023/03/29 12:40:13;;;;;;;30.30;19.15;;;;;;;;;;5044716;28;20133;-66
2023/03/29 12:42:44;;;;;;;27.23;17.83;;;;;;;;;;5060548;28;20037;-66
2023/03/29 12:45:14;;;;;;;26.65;18.33;;;;;;;;;;5063402;28;20044;-65
2023/03/29 12:47:43;;;;;;;30.95;19.52;;;;;;;;;;5050989;28;20118;-65
2023/03/29 12:50:19;;;;;;;30.67;18.63;;;;;;;;;;5049777;28;20462;-66
2023/03/29 12:52:46;;;;;;;28.67;19.25;;;;;;;;;;5031650;28;20484;-67
2023/03/29 12:55:20;;;;;;;29.20;19.27;;;;;;;;;;5050364;28;20097;-66
2023/03/29 12:58:00;;;;;;;30.63;19.05;;;;;;;;;;5051150;28;20053;-66
2023/03/29 13:00:31;;;;;;;31.67;19.50;;;;;;;;;;5058299;28;20044;-66
2023/03/29 13:03:03;;;;;;;33.35;20.30;;;;;;;;;;5062365;28;20045;-68
2023/03/29 13:05:31;;;;;;;35.60;20.45;;;;;;;;;;5041879;28;20086;-66
2023/03/29 13:07:57;;;;;;;33.53;21.90;;;;;;;;;;5058589;28;20560;-66
2023/03/29 13:10:33;;;;;;;34.72;21.35;;;;;;;;;;5055989;28;20036;-66
2023/03/29 13:13:08;;;;;;;32.53;22.13;;;;;;;;;;5060940;28;20086;-66
2023/03/29 13:15:35;;;;;;;29.90;21.30;;;;;;;;;;5055600;28;20366;-67
2023/03/29 13:18:05;;;;;;;31.05;21.33;;;;;;;;;;5037588;28;20081;-66
2023/03/29 13:20:37;;;;;;;30.90;21.13;;;;;;;;;;5052695;28;20393;-66
2023/03/29 13:23:12;;;;;;;33.67;22.52;;;;;;;;;;5034642;28;20124;-67
2023/03/29 13:25:40;;;;;;;33.03;23.13;;;;;;;;;;5057164;28;20425;-66
2023/03/29 13:28:13;;;;;;;29.25;21.77;;;;;;;;;;5037527;28;20044;-67
2023/03/29 13:30:45;;;;;;;27.65;21.25;;;;;;;;;;5041828;28;20055;-66
2023/03/29 13:33:20;;;;;;;29.60;21.15;;;;;;;;;;5058840;28;20484;-67
2023/03/29 13:35:52;;;;;;;30.15;21.80;;;;;;;;;;5060605;28;20039;-67
2023/03/29 13:38:25;;;;;;;32.88;22.05;;;;;;;;;;5060895;28;20185;-67
2023/03/29 13:40:52;;;;;;;30.85;23.10;;;;;;;;;;5061387;28;20040;-67
2023/03/29 13:43:18;;;;;;;32.13;22.15;;;;;;;;;;5043315;28;20048;-66
2023/03/29 13:45:45;;;;;;;34.70;22.05;;;;;;;;;;5061074;28;20397;-67
2023/03/29 13:48:26;;;;;;;36.80;22.33;;;;;;;;;;5057813;28;20037;-67
2023/03/29 13:50:55;;;;;;;27.15;20.98;;;;;;;;;;5062456;28;20086;-67
2023/03/29 13:53:21;;;;;;;36.70;24.13;;;;;;;;;;5044863;28;20186;-66
2023/03/29 13:55:50;;;;;;;31.92;23.58;;;;;;;;;;5060586;28;20032;-66
2023/03/29 13:58:26;;;;;;;31.25;22.00;;;;;;;;;;5061303;28;21547;-67
2023/03/29 14:00:56;;;;;;;30.90;21.80;;;;;;;;;;5043294;28;20211;-67
2023/03/29 14:03:28;;;;;;;28.42;20.35;;;;;;;;;;5060693;28;20496;-67
2023/03/29 14:05:57;;;;;;;27.85;20.33;;;;;;;;;;5039226;28;20163;-66
2023/03/29 14:08:28;;;;;;;25.38;19.38;;;;;;;;;;5054441;28;20097;-66
2023/03/29 14:10:55;;;;;;;28.02;19.95;;;;;;;;;;5056278;28;20077;-66
2023/03/29 14:13:24;;;;;;;26.88;19.95;;;;;;;;;;5059645;28;20123;-66
2023/03/29 14:15:53;;;;;;;31.88;21.33;;;;;;;;;;5060711;28;20082;-66
2023/03/29 14:18:21;;;;;;;31.42;22.52;;;;;;;;;;5040870;28;20436;-66
2023/03/29 14:20:52;;;;;;;28.10;20.35;;;;;;;;;;5041968;28;20072;-67
2023/03/29 14:23:21;;;;;;;27.77;21.45;;;;;;;;;;5061264;28;20446;-66
2023/03/29 14:25:47;;;;;;;25.80;20.75;;;;;;;;;;5064006;28;20052;-66
2023/03/29 14:28:20;;;;;;;28.13;21.23;;;;;;;;;;5062947;28;20484;-66
2023/03/29 14:30:48;;;;;;;29.63;21.90;;;;;;;;;;5038864;28;20132;-66
2023/03/29 14:33:15;;;;;;;24.63;19.98;;;;;;;;;;5061094;28;20036;-67
2023/03/29 14:35:41;;;;;;;28.83;19.48;;;;;;;;;;5061207;28;20344;-67